Time;durP1;ratioP1;P1;durP2;ratioP2;P2;SDS_P1;SDS_P2;PMS_P1;PMS_P2;Temp;Humidity;BMP_temperature;BMP_pressure;BME280_temperature;BME280_humidity;BME280_pressure;Samples;Min_cycle;Max_cycle;Signal;HPM_P1;HPM_P2
2021/12/31 00:00:15;;;;;;;0.00;0.00;;;10.10;96.10;;;;;;4181038;28;20041;-59
2021/12/31 00:02:39;;;;;;;0.00;0.00;;;10.10;96.30;;;;;;4180510;28;20067;-59
2021/12/31 00:05:03;;;;;;;0.00;0.00;;;10.10;96.30;;;;;;4181085;28;20099;-59
2021/12/31 00:07:25;;;;;;;0.00;0.00;;;10.00;96.30;;;;;;4181180;28;20457;-59
2021/12/31 00:09:48;;;;;;;0.00;0.00;;;9.90;96.90;;;;;;4181251;28;20128;-59
2021/12/31 00:12:10;;;;;;;0.00;0.00;;;10.00;96.70;;;;;;4180798;28;20055;-59
2021/12/31 00:14:33;;;;;;;0.00;0.00;;;10.00;96.50;;;;;;4180425;28;20041;-59
2021/12/31 00:16:56;;;;;;;0.00;0.00;;;10.10;96.50;;;;;;4180969;28;20132;-59
2021/12/31 00:19:18;;;;;;;0.00;0.00;;;10.10;96.30;;;;;;4180734;28;20203;-59
2021/12/31 00:21:44;;;;;;;0.00;0.00;;;10.10;96.10;;;;;;4180654;28;20494;-59
2021/12/31 00:24:07;;;;;;;0.00;0.00;;;10.10;96.00;;;;;;4180591;28;20052;-59
2021/12/31 00:26:29;;;;;;;0.00;0.00;;;10.00;96.00;;;;;;4180337;28;20083;-59
2021/12/31 00:28:52;;;;;;;0.00;0.00;;;10.00;96.10;;;;;;4180802;28;20041;-59
2021/12/31 00:31:14;;;;;;;0.00;0.00;;;9.90;96.10;;;;;;4180416;28;20044;-59
2021/12/31 00:33:36;;;;;;;0.00;0.00;;;9.90;96.10;;;;;;4180547;28;20067;-59
2021/12/31 00:35:59;;;;;;;0.00;0.00;;;9.90;96.10;;;;;;4180583;28;20118;-59
2021/12/31 00:38:21;;;;;;;0.00;0.00;;;9.90;96.00;;;;;;4179981;28;20084;-59
2021/12/31 00:40:45;;;;;;;0.00;0.00;;;9.90;96.00;;;;;;4180104;28;20517;-59
2021/12/31 00:43:10;;;;;;;0.00;0.00;;;9.90;95.80;;;;;;4180398;28;20466;-59
2021/12/31 00:45:37;;;;;;;0.00;0.00;;;9.70;95.90;;;;;;4179005;28;20068;-59
2021/12/31 00:47:59;;;;;;;0.00;0.00;;;9.80;95.80;;;;;;4194171;28;20052;-59
2021/12/31 00:50:22;;;;;;;0.00;0.00;;;9.80;95.60;;;;;;4180230;28;20053;-60
2021/12/31 00:52:45;;;;;;;0.00;0.00;;;9.60;95.70;;;;;;4194358;28;20041;-60
2021/12/31 00:55:10;;;;;;;0.00;0.00;;;9.70;95.70;;;;;;4180332;28;20045;-60
2021/12/31 00:57:32;;;;;;;0.00;0.00;;;9.70;95.70;;;;;;4180236;28;20060;-60
2021/12/31 00:59:54;;;;;;;0.00;0.00;;;9.70;95.60;;;;;;4194129;28;20045;-60
2021/12/31 01:02:18;;;;;;;0.00;0.00;;;9.70;95.50;;;;;;4180216;28;20056;-60
2021/12/31 01:04:41;;;;;;;0.00;0.00;;;9.60;95.50;;;;;;4180791;28;20123;-60
2021/12/31 01:07:04;;;;;;;0.00;0.00;;;9.60;95.50;;;;;;4181162;28;20037;-60
2021/12/31 01:09:29;;;;;;;0.00;0.00;;;9.60;95.60;;;;;;4180992;28;20052;-60
2021/12/31 01:11:57;;;;;;;0.00;0.00;;;9.50;95.40;;;;;;4180776;28;20048;-60
2021/12/31 01:14:37;;;;;;;0.00;0.00;;;9.40;95.40;;;;;;4180613;28;20054;-62
2021/12/31 01:17:04;;;;;;;0.00;0.00;;;9.10;95.90;;;;;;4179902;28;20048;-60
2021/12/31 01:21:51;;;;;;;0.00;0.00;;;8.80;96.70;;;;;;4180692;28;20051;-59
2021/12/31 01:24:14;;;;;;;0.00;0.00;;;8.70;97.00;;;;;;4180851;28;20072;-60
2021/12/31 01:26:36;;;;;;;0.00;0.00;;;8.70;97.40;;;;;;4180378;28;20045;-60
2021/12/31 01:28:59;;;;;;;0.00;0.00;;;8.70;97.50;;;;;;4179670;28;20558;-60
2021/12/31 01:31:29;;;;;;;0.00;0.00;;;8.60;97.60;;;;;;4179518;28;20041;-59
2021/12/31 01:33:52;;;;;;;0.00;0.00;;;8.60;97.60;;;;;;4180699;28;20056;-59
2021/12/31 01:36:18;;;;;;;0.00;0.00;;;8.60;97.60;;;;;;4179246;28;20049;-60
2021/12/31 01:38:44;;;;;;;0.00;0.00;;;8.60;97.50;;;;;;4179505;28;20053;-59
2021/12/31 01:41:07;;;;;;;0.00;0.00;;;8.60;97.50;;;;;;4180293;28;20049;-59
2021/12/31 01:43:30;;;;;;;0.00;0.00;;;8.50;97.60;;;;;;4180596;28;20049;-59
2021/12/31 01:46:10;;;;;;;0.00;0.00;;;8.50;97.60;;;;;;4179538;28;20433;-59
2021/12/31 01:48:47;;;;;;;0.00;0.00;;;8.50;97.90;;;;;;4169493;28;20517;-60
2021/12/31 01:51:29;;;;;;;0.00;0.00;;;8.60;97.50;;;;;;4180149;28;20055;-59
2021/12/31 01:54:03;;;;;;;0.00;0.00;;;8.60;97.50;;;;;;4180547;28;20053;-60
2021/12/31 01:56:31;;;;;;;0.00;0.00;;;8.70;97.30;;;;;;4162310;28;20128;-61
2021/12/31 01:59:06;;;;;;;0.00;0.00;;;8.70;97.30;;;;;;4163865;28;20545;-59
2021/12/31 02:01:30;;;;;;;0.00;0.00;;;8.60;97.30;;;;;;4161958;28;20045;-59
2021/12/31 02:03:53;;;;;;;0.00;0.00;;;8.60;97.30;;;;;;4163785;28;20053;-59
2021/12/31 02:06:15;;;;;;;0.00;0.00;;;8.60;97.30;;;;;;4163714;28;20048;-59
2021/12/31 02:08:49;;;;;;;0.00;0.00;;;8.60;97.30;;;;;;4175505;28;20045;-60
2021/12/31 02:11:12;;;;;;;0.00;0.00;;;8.70;97.50;;;;;;4163533;28;20041;-60
2021/12/31 02:13:36;;;;;;;0.00;0.00;;;8.70;97.10;;;;;;4163921;28;20106;-59
2021/12/31 02:15:58;;;;;;;0.00;0.00;;;8.80;97.10;;;;;;4163682;28;20060;-59
2021/12/31 02:18:21;;;;;;;0.00;0.00;;;8.80;97.10;;;;;;4178018;28;20107;-59
2021/12/31 02:20:46;;;;;;;0.00;0.00;;;8.90;97.00;;;;;;4163528;28;20548;-59
2021/12/31 02:23:25;;;;;;;0.00;0.00;;;9.00;96.80;;;;;;4163497;28;20124;-60
2021/12/31 02:25:48;;;;;;;0.00;0.00;;;9.00;96.60;;;;;;4163427;28;20084;-59
2021/12/31 02:28:11;;;;;;;0.00;0.00;;;9.10;96.50;;;;;;4163516;28;20484;-59
2021/12/31 02:30:34;;;;;;;0.00;0.00;;;9.10;96.50;;;;;;4177078;28;20106;-59
2021/12/31 02:32:56;;;;;;;0.00;0.00;;;9.10;96.30;;;;;;4163541;28;20514;-59
2021/12/31 02:35:19;;;;;;;0.00;0.00;;;9.00;96.00;;;;;;4163267;28;20137;-59
2021/12/31 02:37:42;;;;;;;0.00;0.00;;;8.90;96.20;;;;;;4163342;28;20519;-59
2021/12/31 02:40:08;;;;;;;0.00;0.00;;;8.90;96.10;;;;;;4163137;28;20088;-59
2021/12/31 02:42:31;;;;;;;0.00;0.00;;;9.00;95.90;;;;;;4164637;28;20142;-59
2021/12/31 02:44:56;;;;;;;0.00;0.00;;;8.90;95.70;;;;;;4174559;28;20079;-59
2021/12/31 02:47:18;;;;;;;0.00;0.00;;;8.90;95.80;;;;;;4163225;28;20099;-60
2021/12/31 02:49:42;;;;;;;0.00;0.00;;;8.80;95.70;;;;;;4163234;28;20077;-59
2021/12/31 02:52:10;;;;;;;0.00;0.00;;;8.80;95.60;;;;;;4162909;28;20080;-59
2021/12/31 02:54:36;;;;;;;0.00;0.00;;;8.80;95.50;;;;;;4162766;28;20085;-60
2021/12/31 02:56:59;;;;;;;0.00;0.00;;;8.70;95.50;;;;;;4163228;28;20447;-59
2021/12/31 02:59:22;;;;;;;0.00;0.00;;;8.80;95.40;;;;;;4161953;28;20467;-60
2021/12/31 03:01:44;;;;;;;0.00;0.00;;;8.80;95.20;;;;;;4162591;28;20141;-59
2021/12/31 03:04:07;;;;;;;0.00;0.00;;;8.70;95.10;;;;;;4162985;28;20056;-59
2021/12/31 03:06:31;;;;;;;0.00;0.00;;;8.70;95.30;;;;;;4162533;28;20549;-60
2021/12/31 03:08:56;;;;;;;0.00;0.00;;;8.70;95.30;;;;;;4162982;28;20048;-59
2021/12/31 03:11:21;;;;;;;0.00;0.00;;;8.70;95.10;;;;;;4162831;28;20521;-59
2021/12/31 03:13:44;;;;;;;0.00;0.00;;;8.60;95.10;;;;;;4162853;28;20145;-59
2021/12/31 03:16:08;;;;;;;0.00;0.00;;;8.60;95.20;;;;;;4162850;28;20072;-59
2021/12/31 03:18:32;;;;;;;0.00;0.00;;;8.50;95.30;;;;;;4176817;28;20088;-61
2021/12/31 03:21:08;;;;;;;0.00;0.00;;;8.50;95.30;;;;;;4162657;28;20324;-57
2021/12/31 03:23:32;;;;;;;0.00;0.00;;;8.50;95.20;;;;;;4162711;28;20121;-58
2021/12/31 03:25:54;;;;;;;0.00;0.00;;;8.40;95.60;;;;;;4162757;28;20160;-58
2021/12/31 03:28:18;;;;;;;0.00;0.00;;;8.40;95.50;;;;;;4162567;28;20053;-58
2021/12/31 03:30:41;;;;;;;0.00;0.00;;;8.40;95.40;;;;;;4178589;28;20060;-59
2021/12/31 03:33:04;;;;;;;0.00;0.00;;;8.50;95.30;;;;;;4179194;28;20506;-59
2021/12/31 03:35:26;;;;;;;0.00;0.00;;;8.50;95.30;;;;;;4179280;28;20136;-59
2021/12/31 03:37:49;;;;;;;0.00;0.00;;;8.50;95.20;;;;;;4179081;28;20126;-59
2021/12/31 03:40:12;;;;;;;0.00;0.00;;;8.50;95.10;;;;;;4178837;28;20084;-58
2021/12/31 03:42:35;;;;;;;0.00;0.00;;;8.50;95.00;;;;;;4162227;28;20080;-58
2021/12/31 03:44:58;;;;;;;0.00;0.00;;;8.40;95.00;;;;;;4162664;28;20064;-58
2021/12/31 03:47:21;;;;;;;0.00;0.00;;;8.50;95.10;;;;;;4162711;28;20057;-58
2021/12/31 03:49:43;;;;;;;0.00;0.00;;;8.40;95.10;;;;;;4162758;28;20055;-59
2021/12/31 03:52:06;;;;;;;0.00;0.00;;;8.40;95.00;;;;;;4162374;28;20088;-59
2021/12/31 03:54:28;;;;;;;0.00;0.00;;;8.40;94.90;;;;;;4162713;28;20570;-59
2021/12/31 03:56:51;;;;;;;0.00;0.00;;;8.30;95.00;;;;;;4162596;28;20099;-59
2021/12/31 03:59:14;;;;;;;0.00;0.00;;;8.30;95.10;;;;;;4162574;28;20103;-59
2021/12/31 04:01:36;;;;;;;0.00;0.00;;;8.30;95.00;;;;;;4162375;28;20093;-59
2021/12/31 04:03:59;;;;;;;0.00;0.00;;;8.40;95.00;;;;;;4162512;28;20473;-59
2021/12/31 04:06:22;;;;;;;0.00;0.00;;;8.30;95.00;;;;;;4161955;28;20077;-59
2021/12/31 04:08:45;;;;;;;0.00;0.00;;;8.30;94.90;;;;;;4162614;28;20511;-59
2021/12/31 04:11:10;;;;;;;0.00;0.00;;;8.30;94.80;;;;;;4162259;28;20052;-59
2021/12/31 04:13:32;;;;;;;0.00;0.00;;;8.30;94.80;;;;;;4162005;28;20129;-59
2021/12/31 04:15:56;;;;;;;0.00;0.00;;;8.30;94.80;;;;;;4162383;28;20409;-59
2021/12/31 04:18:18;;;;;;;0.00;0.00;;;8.30;94.80;;;;;;4162083;28;20049;-60
2021/12/31 04:20:44;;;;;;;0.00;0.00;;;8.30;94.80;;;;;;4163160;28;20195;-59
2021/12/31 04:23:26;;;;;;;0.00;0.00;;;8.40;94.90;;;;;;4165479;28;20068;-58
2021/12/31 04:25:48;;;;;;;0.00;0.00;;;8.30;95.20;;;;;;4165776;28;20064;-58
2021/12/31 04:28:11;;;;;;;0.00;0.00;;;8.20;95.60;;;;;;4165403;28;20053;-58
2021/12/31 04:30:34;;;;;;;0.00;0.00;;;8.10;95.80;;;;;;4178790;28;20591;-60
2021/12/31 04:32:58;;;;;;;0.00;0.00;;;8.10;96.00;;;;;;4165486;28;20709;-60
2021/12/31 04:35:21;;;;;;;0.00;0.00;;;8.00;96.30;;;;;;4165261;28;20049;-60
2021/12/31 04:37:45;;;;;;;0.00;0.00;;;7.90;96.50;;;;;;4165197;28;20099;-59
2021/12/31 04:40:11;;;;;;;0.00;0.00;;;7.90;96.70;;;;;;4164920;28;20050;-60
2021/12/31 04:42:43;;;;;;;0.00;0.00;;;7.90;96.80;;;;;;4181427;28;20409;-60
2021/12/31 04:45:11;;;;;;;0.00;0.00;;;7.90;96.80;;;;;;4180536;28;20048;-59
2021/12/31 04:47:39;;;;;;;0.00;0.00;;;7.90;96.80;;;;;;4181584;28;20049;-59
2021/12/31 04:50:11;;;;;;;0.00;0.00;;;7.90;96.80;;;;;;4181468;28;20096;-60
2021/12/31 04:52:40;;;;;;;0.00;0.00;;;7.90;96.90;;;;;;4181075;28;20383;-60
2021/12/31 04:55:11;;;;;;;0.00;0.00;;;7.90;97.00;;;;;;4181490;28;20387;-59
2021/12/31 04:57:42;;;;;;;0.00;0.00;;;7.90;97.30;;;;;;4181371;28;20071;-61
2021/12/31 05:00:13;;;;;;;0.00;0.00;;;7.90;97.00;;;;;;4181288;28;20053;-59
2021/12/31 05:02:41;;;;;;;0.00;0.00;;;8.00;96.90;;;;;;4180932;28;20163;-60
2021/12/31 05:05:09;;;;;;;0.00;0.00;;;8.00;96.80;;;;;;4181294;28;20116;-60
2021/12/31 05:07:40;;;;;;;0.00;0.00;;;8.00;96.60;;;;;;4180243;28;20083;-59
2021/12/31 05:10:09;;;;;;;0.00;0.00;;;8.10;96.70;;;;;;4154649;28;20048;-59
2021/12/31 05:12:39;;;;;;;0.00;0.00;;;8.20;96.60;;;;;;4177730;28;20103;-59
2021/12/31 05:15:10;;;;;;;0.00;0.00;;;8.20;96.30;;;;;;4164694;28;20475;-58
2021/12/31 05:17:40;;;;;;;0.00;0.00;;;8.20;96.30;;;;;;4164577;28;20057;-59
2021/12/31 05:20:09;;;;;;;0.00;0.00;;;8.10;96.20;;;;;;4163493;28;20100;-59
2021/12/31 05:22:39;;;;;;;0.00;0.00;;;8.20;96.00;;;;;;4164109;28;20045;-58
2021/12/31 05:25:11;;;;;;;0.00;0.00;;;8.20;95.80;;;;;;4164530;28;20045;-59
2021/12/31 05:27:33;;;;;;;0.00;0.00;;;8.10;95.80;;;;;;4163408;28;20539;-58
2021/12/31 05:29:56;;;;;;;0.00;0.00;;;8.10;95.70;;;;;;4177376;28;20136;-59
2021/12/31 05:32:18;;;;;;;0.00;0.00;;;8.10;95.60;;;;;;4148870;28;20475;-61
2021/12/31 05:34:40;;;;;;;0.00;0.00;;;8.10;95.50;;;;;;4163692;28;20148;-59
2021/12/31 05:37:03;;;;;;;0.00;0.00;;;7.90;95.30;;;;;;4163574;28;20550;-59
2021/12/31 05:39:26;;;;;;;0.00;0.00;;;7.90;95.50;;;;;;4163355;28;20376;-59
2021/12/31 05:41:48;;;;;;;0.00;0.00;;;7.90;95.10;;;;;;4176955;28;20041;-59
2021/12/31 05:44:11;;;;;;;0.00;0.00;;;7.50;95.20;;;;;;4163287;28;20103;-59
2021/12/31 05:46:34;;;;;;;0.00;0.00;;;7.60;95.30;;;;;;4149342;28;20088;-59
2021/12/31 05:48:57;;;;;;;0.00;0.00;;;7.70;95.20;;;;;;4163371;28;20064;-59
2021/12/31 05:51:20;;;;;;;0.00;0.00;;;7.80;95.00;;;;;;4163084;28;20560;-59
2021/12/31 05:53:43;;;;;;;0.00;0.00;;;7.80;95.00;;;;;;4163172;28;20128;-59
2021/12/31 05:56:06;;;;;;;0.00;0.00;;;7.80;94.90;;;;;;4163141;28;20049;-59
2021/12/31 05:58:28;;;;;;;0.00;0.00;;;7.70;95.00;;;;;;4162784;28;20147;-59
2021/12/31 06:00:50;;;;;;;0.00;0.00;;;7.60;95.20;;;;;;4162692;28;20545;-59
2021/12/31 06:03:13;;;;;;;0.00;0.00;;;7.60;95.10;;;;;;4162960;28;20053;-59
2021/12/31 06:05:36;;;;;;;0.00;0.00;;;7.80;94.90;;;;;;4163026;28;20518;-59
2021/12/31 06:07:59;;;;;;;0.00;0.00;;;7.70;94.90;;;;;;4162946;28;20060;-59
2021/12/31 06:10:22;;;;;;;0.00;0.00;;;7.70;95.10;;;;;;4162528;28;20071;-58
2021/12/31 06:12:45;;;;;;;0.00;0.00;;;7.50;95.60;;;;;;4162925;28;20045;-58
2021/12/31 06:15:09;;;;;;;0.00;0.00;;;7.60;95.50;;;;;;4169812;28;20037;-58
2021/12/31 06:17:32;;;;;;;0.00;0.00;;;7.60;95.30;;;;;;4169096;28;20080;-60
2021/12/31 06:19:55;;;;;;;0.00;0.00;;;7.70;95.40;;;;;;4162677;28;20393;-60
2021/12/31 06:22:17;;;;;;;0.00;0.00;;;7.70;95.30;;;;;;4178739;28;20684;-61
2021/12/31 06:24:41;;;;;;;0.00;0.00;;;7.70;95.30;;;;;;4179125;28;20041;-59
2021/12/31 06:27:04;;;;;;;0.00;0.00;;;7.70;95.20;;;;;;4179171;28;20098;-59
2021/12/31 06:29:26;;;;;;;0.00;0.00;;;7.50;95.20;;;;;;4179238;28;20068;-59
2021/12/31 06:31:48;;;;;;;0.00;0.00;;;7.50;95.40;;;;;;4178909;28;20095;-59
2021/12/31 06:34:11;;;;;;;0.00;0.00;;;7.50;95.00;;;;;;4193031;28;20067;-60
2021/12/31 06:36:33;;;;;;;0.00;0.00;;;7.50;94.90;;;;;;4176361;28;20503;-59
2021/12/31 06:38:57;;;;;;;0.00;0.00;;;7.50;94.80;;;;;;4176196;28;20047;-59
2021/12/31 06:41:20;;;;;;;0.00;0.00;;;7.50;94.70;;;;;;4162185;28;20467;-59
2021/12/31 06:43:44;;;;;;;0.00;0.00;;;7.30;94.70;;;;;;4148467;28;20091;-59
2021/12/31 06:46:06;;;;;;;0.00;0.00;;;7.20;95.10;;;;;;4162436;28;20545;-59
2021/12/31 06:48:28;;;;;;;0.00;0.00;;;7.30;95.10;;;;;;4177219;28;20049;-59
2021/12/31 06:50:51;;;;;;;0.00;0.00;;;7.40;94.90;;;;;;4162094;28;20054;-59
2021/12/31 06:53:13;;;;;;;0.00;0.00;;;7.40;94.80;;;;;;4162386;28;20045;-60
2021/12/31 06:55:35;;;;;;;0.00;0.00;;;7.40;94.80;;;;;;4162310;28;20076;-60
2021/12/31 06:57:58;;;;;;;0.00;0.00;;;7.40;94.90;;;;;;4162176;28;20499;-59
2021/12/31 07:00:21;;;;;;;0.00;0.00;;;7.40;95.00;;;;;;4162005;28;20049;-60
2021/12/31 07:02:44;;;;;;;0.00;0.00;;;7.40;95.10;;;;;;4162299;28;20041;-58
2021/12/31 07:05:07;;;;;;;0.00;0.00;;;7.40;95.10;;;;;;4148726;28;20541;-59
2021/12/31 07:07:30;;;;;;;0.00;0.00;;;7.30;95.10;;;;;;4179432;28;20106;-59
2021/12/31 07:09:53;;;;;;;0.00;0.00;;;7.10;95.50;;;;;;4165491;28;20095;-59
2021/12/31 07:12:15;;;;;;;0.00;0.00;;;7.00;95.90;;;;;;4161790;28;20097;-59
2021/12/31 07:14:37;;;;;;;0.00;0.00;;;7.00;96.00;;;;;;4151044;28;20064;-59
2021/12/31 07:17:00;;;;;;;0.00;0.00;;;7.00;96.10;;;;;;4172640;28;20049;-58
2021/12/31 07:19:22;;;;;;;0.00;0.00;;;7.20;96.00;;;;;;4162274;28;20144;-59
2021/12/31 07:21:44;;;;;;;0.00;0.00;;;7.20;95.80;;;;;;4175554;28;20470;-59
2021/12/31 07:24:07;;;;;;;0.00;0.00;;;7.20;95.90;;;;;;4161947;28;20528;-59
2021/12/31 07:26:29;;;;;;;0.00;0.00;;;7.20;96.00;;;;;;4161495;28;20046;-59
2021/12/31 07:28:51;;;;;;;0.00;0.00;;;7.30;95.90;;;;;;4161826;28;20045;-59
2021/12/31 07:31:14;;;;;;;0.00;0.00;;;7.30;95.60;;;;;;4155900;28;20523;-60
2021/12/31 07:33:36;;;;;;;0.00;0.00;;;7.30;95.40;;;;;;4145513;28;20148;-59
2021/12/31 07:36:00;;;;;;;0.00;0.00;;;7.30;95.60;;;;;;4145559;28;20135;-60
2021/12/31 07:38:28;;;;;;;0.00;0.00;;;7.10;96.10;;;;;;4145203;28;20065;-61
2021/12/31 07:40:51;;;;;;;0.00;0.00;;;7.10;96.50;;;;;;4144849;28;20046;-60
2021/12/31 07:43:14;;;;;;;0.00;0.00;;;7.30;96.50;;;;;;4145603;28;20085;-60
2021/12/31 07:45:38;;;;;;;0.00;0.00;;;7.30;96.10;;;;;;4145459;28;20454;-59
2021/12/31 07:48:02;;;;;;;0.00;0.00;;;7.20;96.10;;;;;;4145594;28;20042;-59
2021/12/31 07:50:24;;;;;;;0.00;0.00;;;7.20;96.30;;;;;;4145162;28;20081;-60
2021/12/31 07:52:47;;;;;;;0.00;0.00;;;7.10;96.40;;;;;;4145656;28;20503;-58
2021/12/31 07:55:09;;;;;;;0.00;0.00;;;7.30;96.20;;;;;;4145700;28;20037;-62
2021/12/31 07:57:31;;;;;;;0.00;0.00;;;7.60;95.80;;;;;;4148542;28;20069;-62
2021/12/31 07:59:54;;;;;;;0.00;0.00;;;7.90;95.40;;;;;;4134912;28;20481;-62
2021/12/31 08:02:16;;;;;;;0.00;0.00;;;8.20;95.10;;;;;;4148382;28;20086;-62
2021/12/31 08:04:39;;;;;;;0.00;0.00;;;8.40;94.90;;;;;;4134886;28;20064;-62
2021/12/31 08:07:01;;;;;;;0.00;0.00;;;8.70;94.50;;;;;;4148100;28;20132;-62
2021/12/31 08:09:24;;;;;;;0.00;0.00;;;8.90;94.20;;;;;;4148439;28;20053;-63
2021/12/31 08:11:46;;;;;;;0.00;0.00;;;9.20;94.00;;;;;;4148016;28;20050;-62
2021/12/31 08:14:10;;;;;;;0.00;0.00;;;9.50;93.60;;;;;;4148273;28;20078;-65
2021/12/31 08:16:32;;;;;;;0.00;0.00;;;9.70;93.40;;;;;;4162395;28;20136;-63
2021/12/31 08:18:55;;;;;;;0.00;0.00;;;9.60;93.20;;;;;;4162188;28;20520;-63
2021/12/31 08:21:17;;;;;;;0.00;0.00;;;9.50;93.30;;;;;;4147847;28;20050;-65
2021/12/31 08:23:39;;;;;;;0.00;0.00;;;9.60;93.40;;;;;;4134733;28;20038;-63
2021/12/31 08:26:02;;;;;;;0.00;0.00;;;9.80;93.20;;;;;;4162528;28;20053;-62
2021/12/31 08:28:25;;;;;;;0.00;0.00;;;10.00;93.10;;;;;;4163705;28;20053;-63
2021/12/31 08:30:47;;;;;;;0.00;0.00;;;10.20;92.90;;;;;;4180775;28;20044;-61
2021/12/31 08:33:10;;;;;;;0.00;0.00;;;10.50;92.50;;;;;;4180812;28;20040;-67
2021/12/31 08:35:32;;;;;;;0.00;0.00;;;10.90;91.90;;;;;;4181039;28;20061;-63
2021/12/31 08:37:55;;;;;;;0.00;0.00;;;11.20;91.50;;;;;;4194603;28;20487;-62
2021/12/31 08:40:20;;;;;;;0.00;0.00;;;11.60;91.20;;;;;;4163640;28;20061;-63
2021/12/31 08:42:42;;;;;;;0.00;0.00;;;12.10;90.80;;;;;;4178128;28;20433;-62
2021/12/31 08:45:05;;;;;;;0.00;0.00;;;12.60;90.30;;;;;;4164448;28;20092;-62
2021/12/31 08:47:29;;;;;;;0.00;0.00;;;13.00;89.40;;;;;;4174015;28;20052;-65
2021/12/31 08:49:51;;;;;;;0.00;0.00;;;13.20;88.00;;;;;;4180669;28;20049;-63
2021/12/31 08:52:14;;;;;;;0.00;0.00;;;13.60;86.90;;;;;;4164206;28;20053;-62
2021/12/31 08:54:37;;;;;;;0.00;0.00;;;13.80;85.80;;;;;;4163679;28;20060;-62
2021/12/31 08:57:01;;;;;;;0.00;0.00;;;13.80;84.40;;;;;;4163957;28;20037;-65
2021/12/31 08:59:23;;;;;;;0.00;0.00;;;13.80;83.90;;;;;;4177784;28;20055;-62
2021/12/31 09:01:46;;;;;;;0.00;0.00;;;13.80;83.70;;;;;;4150242;28;20148;-62
2021/12/31 09:04:09;;;;;;;0.00;0.00;;;13.80;83.20;;;;;;4163952;28;20050;-62
2021/12/31 09:06:31;;;;;;;0.00;0.00;;;13.70;82.70;;;;;;4179338;28;20105;-62
2021/12/31 09:08:53;;;;;;;0.00;0.00;;;13.50;81.80;;;;;;4194167;28;20048;-62
2021/12/31 09:11:16;;;;;;;0.00;0.00;;;13.10;82.60;;;;;;4180059;28;20041;-62
2021/12/31 09:13:38;;;;;;;0.00;0.00;;;13.10;83.30;;;;;;4179891;28;20099;-62
2021/12/31 09:16:01;;;;;;;0.00;0.00;;;13.30;83.00;;;;;;4151862;28;20049;-62
2021/12/31 09:18:23;;;;;;;0.00;0.00;;;13.50;82.10;;;;;;4163137;28;20133;-64
2021/12/31 09:20:46;;;;;;;0.00;0.00;;;13.60;81.70;;;;;;4163351;28;20037;-63
2021/12/31 09:23:08;;;;;;;0.00;0.00;;;14.00;80.60;;;;;;4177751;28;20049;-64
2021/12/31 09:25:31;;;;;;;0.00;0.00;;;14.20;79.60;;;;;;4177385;28;20059;-62
2021/12/31 09:27:53;;;;;;;0.00;0.00;;;14.30;79.50;;;;;;4177242;28;20041;-62
2021/12/31 09:30:15;;;;;;;0.00;0.00;;;14.70;78.90;;;;;;4163573;28;20104;-62
2021/12/31 09:32:38;;;;;;;0.00;0.00;;;14.60;78.00;;;;;;4149263;28;20048;-62
2021/12/31 09:35:01;;;;;;;0.00;0.00;;;14.70;78.30;;;;;;4177214;28;20119;-61
2021/12/31 09:37:23;;;;;;;0.00;0.00;;;14.70;78.10;;;;;;4163358;28;20051;-61
2021/12/31 09:39:46;;;;;;;0.00;0.00;;;14.80;77.90;;;;;;4136093;28;20495;-62
2021/12/31 09:42:09;;;;;;;0.00;0.00;;;14.90;76.90;;;;;;4176927;28;20072;-62
2021/12/31 09:44:33;;;;;;;0.00;0.00;;;14.80;77.10;;;;;;4179387;28;20052;-62
2021/12/31 09:46:55;;;;;;;0.00;0.00;;;15.20;75.40;;;;;;4179679;28;20127;-61
2021/12/31 09:49:18;;;;;;;0.00;0.00;;;15.40;74.30;;;;;;4179850;28;20076;-63
2021/12/31 09:51:44;;;;;;;0.00;0.00;;;15.20;73.50;;;;;;4179334;28;20072;-62
2021/12/31 09:54:07;;;;;;;0.00;0.00;;;15.70;74.00;;;;;;4179661;28;20068;-62
2021/12/31 09:56:30;;;;;;;0.00;0.00;;;16.30;72.40;;;;;;4193062;28;20484;-61
2021/12/31 09:58:53;;;;;;;0.00;0.00;;;16.80;71.10;;;;;;4179523;28;20453;-62
2021/12/31 10:01:15;;;;;;;0.00;0.00;;;17.10;69.10;;;;;;4179146;28;20053;-62
2021/12/31 10:03:38;;;;;;;0.00;0.00;;;17.40;68.50;;;;;;4165872;28;20467;-61
2021/12/31 10:06:06;;;;;;;0.00;0.00;;;17.60;67.70;;;;;;4179298;28;20075;-61
2021/12/31 10:08:30;;;;;;;0.00;0.00;;;17.70;66.50;;;;;;4178733;28;20068;-61
2021/12/31 10:11:07;;;;;;;0.00;0.00;;;17.60;66.30;;;;;;4178759;28;20095;-62
2021/12/31 10:13:32;;;;;;;0.00;0.00;;;17.70;65.70;;;;;;4179465;28;20490;-62
2021/12/31 10:15:56;;;;;;;0.00;0.00;;;17.50;64.70;;;;;;4179345;28;20126;-62
2021/12/31 10:18:19;;;;;;;0.00;0.00;;;17.30;64.70;;;;;;4177952;28;20051;-63
2021/12/31 10:20:52;;;;;;;0.00;0.00;;;17.10;65.00;;;;;;4178938;28;20041;-62
2021/12/31 10:23:16;;;;;;;0.00;0.00;;;17.30;65.10;;;;;;4193124;28;20045;-62
2021/12/31 10:25:39;;;;;;;0.00;0.00;;;17.20;65.20;;;;;;4179072;28;20049;-63
2021/12/31 10:28:12;;;;;;;0.00;0.00;;;17.20;65.00;;;;;;4179039;28;20123;-63
2021/12/31 10:30:35;;;;;;;0.00;0.00;;;17.30;65.20;;;;;;4178417;28;20088;-63
2021/12/31 10:32:57;;;;;;;0.00;0.00;;;17.50;65.10;;;;;;4179075;28;20116;-62
2021/12/31 10:35:21;;;;;;;0.00;0.00;;;17.80;64.70;;;;;;4179076;28;20453;-62
2021/12/31 10:37:48;;;;;;;0.00;0.00;;;18.00;64.20;;;;;;4178745;28;20049;-61
2021/12/31 10:40:11;;;;;;;0.00;0.00;;;18.30;63.40;;;;;;4178403;28;20049;-65
2021/12/31 10:42:34;;;;;;;0.00;0.00;;;18.40;63.40;;;;;;4190100;28;20076;-61
2021/12/31 10:44:58;;;;;;;0.00;0.00;;;18.70;61.40;;;;;;4148602;28;20046;-61
2021/12/31 10:47:32;;;;;;;0.00;0.00;;;18.20;60.90;;;;;;4162259;28;20129;-62
2021/12/31 10:50:00;;;;;;;0.00;0.00;;;17.90;60.90;;;;;;4162242;28;20049;-62
2021/12/31 10:52:26;;;;;;;0.00;0.00;;;17.70;61.80;;;;;;4161798;28;20045;-62
2021/12/31 10:55:02;;;;;;;0.00;0.00;;;17.60;60.70;;;;;;4162323;28;20041;-62
2021/12/31 10:57:45;;;;;;;0.00;0.00;;;17.90;61.50;;;;;;4162148;28;20593;-61
2021/12/31 11:00:10;;;;;;;0.00;0.00;;;18.40;59.90;;;;;;4148628;28;20420;-62
2021/12/31 11:02:34;;;;;;;0.00;0.00;;;18.30;59.20;;;;;;4192278;28;20044;-62
2021/12/31 11:04:57;;;;;;;0.00;0.00;;;19.00;58.90;;;;;;4165016;28;20040;-62
2021/12/31 11:07:20;;;;;;;0.00;0.00;;;19.90;57.10;;;;;;4164551;28;20053;-62
2021/12/31 11:09:43;;;;;;;0.00;0.00;;;20.30;55.80;;;;;;4178346;28;20045;-61
2021/12/31 11:12:06;;;;;;;0.00;0.00;;;20.40;54.30;;;;;;4164850;28;20132;-61
2021/12/31 11:14:28;;;;;;;0.00;0.00;;;19.80;55.10;;;;;;4161530;28;20065;-67
2021/12/31 11:17:46;;;;;;;0.00;0.00;;;20.20;56.00;;;;;;4198133;27;20122;-64
2021/12/31 11:20:10;;;;;;;0.00;0.00;;;18.40;56.10;;;;;;4192841;28;20307;-64
2021/12/31 11:22:33;;;;;;;0.00;0.00;;;18.70;57.40;;;;;;4193315;28;20056;-64
2021/12/31 11:25:18;;;;;;;0.00;0.00;;;19.30;56.00;;;;;;4192517;28;20053;-64
2021/12/31 11:27:45;;;;;;;0.00;0.00;;;19.40;55.00;;;;;;4192606;28;20152;-64
2021/12/31 11:30:37;;;;;;;0.00;0.00;;;19.10;55.00;;;;;;4192696;28;20124;-65
2021/12/31 11:33:10;;;;;;;0.00;0.00;;;19.00;55.20;;;;;;4175663;28;20411;-64
2021/12/31 11:35:43;;;;;;;0.00;0.00;;;19.10;54.70;;;;;;4176157;28;20530;-65
2021/12/31 11:38:15;;;;;;;0.00;0.00;;;19.30;54.30;;;;;;4175557;28;20045;-65
2021/12/31 11:40:40;;;;;;;0.00;0.00;;;19.10;54.10;;;;;;4175254;28;20100;-65
2021/12/31 11:43:25;;;;;;;0.00;0.00;;;17.70;56.20;;;;;;4175913;28;20052;-63
2021/12/31 11:46:12;;;;;;;0.00;0.00;;;16.50;59.50;;;;;;4175908;28;20506;-61
2021/12/31 11:48:50;;;;;;;0.00;0.00;;;15.70;61.90;;;;;;4174942;28;20041;-64
2021/12/31 11:51:18;;;;;;;0.00;0.00;;;14.80;64.60;;;;;;4175330;28;20418;-65
2021/12/31 11:53:58;;;;;;;0.00;0.00;;;14.60;66.30;;;;;;4175575;28;20086;-62
2021/12/31 11:56:35;;;;;;;0.00;0.00;;;14.70;67.30;;;;;;4175450;28;20053;-64
2021/12/31 11:58:58;;;;;;;0.00;0.00;;;14.60;67.80;;;;;;4175542;28;20049;-64
2021/12/31 12:01:36;;;;;;;0.00;0.00;;;14.40;68.90;;;;;;4175306;28;20064;-63
2021/12/31 12:04:19;;;;;;;0.00;0.00;;;14.40;69.80;;;;;;4175652;28;20491;-64
2021/12/31 12:06:55;;;;;;;0.00;0.00;;;14.30;70.50;;;;;;4175197;28;20494;-63
2021/12/31 12:09:17;;;;;;;0.00;0.00;;;14.20;71.60;;;;;;4175383;28;20435;-64
2021/12/31 12:12:03;;;;;;;0.00;0.00;;;14.10;72.00;;;;;;4175218;28;20072;-63
2021/12/31 12:14:42;;;;;;;0.00;0.00;;;13.90;72.80;;;;;;4174834;28;20471;-62
2021/12/31 12:17:05;;;;;;;0.00;0.00;;;13.90;73.50;;;;;;4161104;28;20459;-59
2021/12/31 12:19:52;;;;;;;0.00;0.00;;;13.70;73.80;;;;;;4161340;28;20080;-63
2021/12/31 12:22:24;;;;;;;0.00;0.00;;;13.70;74.20;;;;;;4174903;28;20045;-65
2021/12/31 12:24:47;;;;;;;0.00;0.00;;;13.70;74.70;;;;;;4174942;28;20056;-64
2021/12/31 12:27:13;;;;;;;0.00;0.00;;;13.60;74.90;;;;;;4189022;28;20529;-64
2021/12/31 12:29:38;;;;;;;0.00;0.00;;;13.70;74.30;;;;;;4164128;28;20045;-63
2021/12/31 12:32:11;;;;;;;0.00;0.00;;;13.60;73.90;;;;;;4173308;28;20128;-63
2021/12/31 12:34:33;;;;;;;0.00;0.00;;;13.50;74.30;;;;;;4180267;28;20049;-63
2021/12/31 12:36:56;;;;;;;0.00;0.00;;;13.40;74.80;;;;;;4180659;28;20499;-62
2021/12/31 12:39:20;;;;;;;0.00;0.00;;;13.20;75.40;;;;;;4180620;28;20128;-64
2021/12/31 12:41:49;;;;;;;0.00;0.00;;;13.10;76.00;;;;;;4180277;28;20055;-64
2021/12/31 12:44:12;;;;;;;0.00;0.00;;;13.20;76.30;;;;;;4180435;28;20492;-64